createdAt,value
2023-03-25T00:00:40.029Z,928.9
2023-03-25T00:15:38.893Z,928.5
2023-03-25T00:30:41.364Z,928.3
2023-03-25T00:45:39.331Z,929
2023-03-25T01:00:42.141Z,929.2
2023-03-25T01:30:41.265Z,930.3
2023-03-25T01:45:39.841Z,930.3
2023-03-25T02:00:41.964Z,929.1
2023-03-25T02:28:29.550Z,928.8
2023-03-25T02:30:44.148Z,930.1
2023-03-25T02:45:42.720Z,930
2023-03-25T03:00:44.713Z,930.6
2023-03-25T03:15:44.781Z,931.5
2023-03-25T03:30:52.061Z,931.5
2023-03-25T03:45:44.544Z,929.8
2023-03-25T04:29:54.217Z,929.8
2023-03-25T04:30:56.361Z,928
2023-03-25T12:31:48.759Z,932.8
2023-03-25T12:46:48.177Z,932.7
2023-03-25T13:01:56.618Z,932.7
2023-03-25T13:16:50.248Z,933.7
2023-03-25T13:31:53.206Z,933.7
2023-03-25T13:46:55.315Z,933.9
2023-03-25T14:01:52.717Z,931.1
2023-03-25T14:16:52.201Z,930.2
2023-03-25T14:31:52.864Z,929.6
2023-03-25T14:46:52.770Z,928.4
2023-03-25T15:01:53.071Z,928.2
2023-03-25T15:16:52.811Z,928.3
2023-03-25T15:31:53.410Z,928.5
2023-03-25T15:47:05.151Z,928.5
2023-03-25T16:01:54.199Z,928.3
2023-03-25T16:17:06.717Z,928.3
2023-03-25T16:31:58.576Z,928.7
2023-03-25T16:46:56.473Z,929.2
2023-03-25T17:02:27.613Z,929.2
2023-03-25T17:16:57.769Z,928.6
2023-03-25T17:31:59.314Z,928.6
2023-03-25T17:47:25.409Z,928.7
2023-03-25T18:02:02.379Z,929.4
2023-03-25T18:17:01.789Z,932.6
2023-03-25T18:32:43.028Z,932.6
2023-03-25T18:47:01.011Z,930.7
2023-03-25T19:02:01.257Z,930.6
2023-03-25T19:17:05.041Z,931.3
2023-03-25T19:32:03.405Z,931.3
2023-03-25T19:47:36.213Z,931.3
2023-03-25T20:17:03.099Z,929.4
2023-03-25T20:32:05.082Z,929.4
2023-03-25T20:47:07.497Z,929
2023-03-25T21:02:05.813Z,928.8
2023-03-25T21:17:05.874Z,928.8
2023-03-25T21:32:07.042Z,929
2023-03-25T21:47:06.729Z,928.9
2023-03-25T22:02:07.493Z,928.8
2023-03-25T22:17:35.387Z,928.8
2023-03-25T22:32:09.773Z,929
2023-03-25T22:47:11.795Z,929
2023-03-25T23:00:57.909Z,929
2023-03-25T23:15:50.697Z,928.9
2023-03-25T23:45:38.988Z,928.9
